Time;durP1;ratioP1;P1;durP2;ratioP2;P2;SDS_P1;SDS_P2;PMS_P1;PMS_P2;Temp;Humidity;BMP_temperature;BMP_pressure;BME280_temperature;BME280_humidity;BME280_pressure;Samples;Min_cycle;Max_cycle;Signal;HPM_P1;HPM_P2
2020/12/12 00:01:39;;;;;;;4.57;3.10;;;;;;;;;;4979401;28;20066;-75
2020/12/12 00:04:04;;;;;;;4.83;3.30;;;;;;;;;;4991833;28;20057;-76
2020/12/12 00:06:29;;;;;;;4.40;3.00;;;;;;;;;;4992371;28;20049;-76
2020/12/12 00:08:55;;;;;;;5.27;3.30;;;;;;;;;;4992413;28;20054;-75
2020/12/12 00:11:20;;;;;;;4.63;3.17;;;;;;;;;;4985855;28;20035;-75
2020/12/12 00:13:46;;;;;;;4.63;3.20;;;;;;;;;;4953621;29;20037;-77
2020/12/12 00:16:14;;;;;;;4.77;3.10;;;;;;;;;;4968877;28;20557;-75
2020/12/12 00:18:39;;;;;;;4.55;3.00;;;;;;;;;;4972554;28;20062;-75
2020/12/12 00:21:05;;;;;;;4.90;3.03;;;;;;;;;;4990849;28;20058;-76
2020/12/12 00:23:31;;;;;;;4.37;3.10;;;;;;;;;;4995656;28;20061;-76
2020/12/12 00:25:56;;;;;;;;;;;;;;;;;;4995735;28;20030;-75
2020/12/12 00:28:21;;;;;;;5.23;3.30;;;;;;;;;;5012017;28;20398;-75
2020/12/12 00:30:47;;;;;;;4.40;3.00;;;;;;;;;;4981264;28;20070;-77
2020/12/12 00:33:12;;;;;;;5.43;3.10;;;;;;;;;;4976158;28;20062;-75
2020/12/12 00:35:37;;;;;;;4.60;3.17;;;;;;;;;;4975967;28;20073;-78
2020/12/12 00:38:03;;;;;;;4.50;3.27;;;;;;;;;;4976060;28;20062;-75
2020/12/12 00:40:28;;;;;;;4.20;2.90;;;;;;;;;;4988084;28;20121;-75
2020/12/12 00:42:53;;;;;;;4.13;3.07;;;;;;;;;;5011653;28;20069;-77
2020/12/12 00:45:19;;;;;;;4.37;2.87;;;;;;;;;;4995295;28;20054;-77
2020/12/12 00:47:44;;;;;;;4.07;2.87;;;;;;;;;;4978802;28;20065;-75
2020/12/12 00:50:09;;;;;;;4.13;3.03;;;;;;;;;;5002693;28;20073;-75
2020/12/12 00:52:35;;;;;;;3.70;2.50;;;;;;;;;;4975949;28;20062;-75
2020/12/12 00:55:00;;;;;;;4.10;2.90;;;;;;;;;;4975927;28;20066;-75
2020/12/12 00:57:25;;;;;;;4.43;3.00;;;;;;;;;;4975736;28;20047;-74
2020/12/12 00:59:51;;;;;;;4.73;3.20;;;;;;;;;;4980998;28;20073;-75
2020/12/12 01:02:16;;;;;;;4.80;3.10;;;;;;;;;;4994952;28;20073;-77
2020/12/12 01:04:41;;;;;;;3.93;2.70;;;;;;;;;;4990389;28;20074;-76
2020/12/12 01:07:07;;;;;;;4.30;3.07;;;;;;;;;;4975841;28;20050;-76
2020/12/12 01:09:32;;;;;;;4.10;2.70;;;;;;;;;;4962134;28;20085;-75
2020/12/12 01:11:57;;;;;;;4.40;3.00;;;;;;;;;;4994858;28;20030;-76
2020/12/12 01:14:23;;;;;;;5.53;3.00;;;;;;;;;;4978551;28;20493;-76
2020/12/12 01:16:48;;;;;;;4.33;3.07;;;;;;;;;;5011437;28;20061;-77
2020/12/12 01:19:13;;;;;;;4.70;3.00;;;;;;;;;;5009929;28;20113;-76
2020/12/12 01:21:39;;;;;;;4.30;3.17;;;;;;;;;;4975283;28;20062;-75
2020/12/12 01:24:05;;;;;;;3.93;2.80;;;;;;;;;;4959034;28;20069;-75
2020/12/12 01:26:31;;;;;;;3.95;3.00;;;;;;;;;;4984943;28;20027;-76
2020/12/12 01:28:56;;;;;;;4.70;3.10;;;;;;;;;;4978752;28;20031;-75
2020/12/12 01:31:21;;;;;;;4.27;3.07;;;;;;;;;;4993243;28;20031;-75
2020/12/12 01:33:47;;;;;;;4.30;2.87;;;;;;;;;;4994181;28;20548;-74
2020/12/12 01:36:12;;;;;;;4.07;2.77;;;;;;;;;;5010813;28;20084;-75
2020/12/12 01:38:37;;;;;;;4.37;2.83;;;;;;;;;;4975799;28;20110;-76
2020/12/12 01:41:03;;;;;;;4.00;2.93;;;;;;;;;;4973091;28;20034;-75
2020/12/12 01:43:28;;;;;;;4.17;2.90;;;;;;;;;;4978138;28;20050;-75
2020/12/12 01:45:53;;;;;;;3.77;2.80;;;;;;;;;;4993907;28;20033;-75
2020/12/12 01:48:19;;;;;;;4.43;3.00;;;;;;;;;;4995414;28;20045;-76
2020/12/12 01:50:44;;;;;;;4.90;2.80;;;;;;;;;;4981995;28;20118;-75
2020/12/12 01:53:10;;;;;;;4.33;3.00;;;;;;;;;;4958664;28;20038;-75
2020/12/12 01:55:36;;;;;;;4.23;2.90;;;;;;;;;;4958777;28;20394;-74
2020/12/12 01:58:01;;;;;;;4.22;2.80;;;;;;;;;;4998471;28;20846;-77
2020/12/12 02:00:26;;;;;;;5.10;2.80;;;;;;;;;;4993921;28;20065;-75
2020/12/12 02:02:55;;;;;;;4.70;3.13;;;;;;;;;;5010408;28;20022;-75
2020/12/12 02:05:39;;;;;;;4.70;2.80;;;;;;;;;;4967374;28;20026;-75
2020/12/12 02:08:25;;;;;;;4.25;2.83;;;;;;;;;;4981774;28;20026;-75
2020/12/12 02:10:50;;;;;;;4.53;2.78;;;;;;;;;;4994238;28;20136;-74
2020/12/12 02:13:17;;;;;;;4.57;2.93;;;;;;;;;;5009992;28;20053;-75
2020/12/12 02:15:42;;;;;;;3.88;2.70;;;;;;;;;;4961343;28;20023;-77
2020/12/12 02:18:18;;;;;;;4.17;2.80;;;;;;;;;;4986990;28;20023;-75
2020/12/12 02:20:50;;;;;;;5.18;3.10;;;;;;;;;;4974125;28;20474;-75
2020/12/12 02:23:17;;;;;;;3.90;2.60;;;;;;;;;;4974250;28;20053;-75
2020/12/12 02:25:42;;;;;;;;;;;;;;;;;;4975814;28;20030;-75
2020/12/12 02:28:11;;;;;;;4.67;2.90;;;;;;;;;;4981082;28;19909;-75
2020/12/12 02:30:37;;;;;;;3.97;2.90;;;;;;;;;;4993419;28;20080;-77
2020/12/12 02:33:02;;;;;;;4.13;2.90;;;;;;;;;;4983988;28;20058;-75
2020/12/12 02:35:28;;;;;;;4.43;2.77;;;;;;;;;;4993677;28;20533;-76
2020/12/12 02:37:54;;;;;;;3.45;2.63;;;;;;;;;;4994569;28;20026;-75
2020/12/12 02:40:19;;;;;;;3.37;2.80;;;;;;;;;;4993110;28;20117;-76
2020/12/12 02:42:44;;;;;;;4.20;3.00;;;;;;;;;;4993263;28;20054;-76
2020/12/12 02:45:10;;;;;;;4.00;2.80;;;;;;;;;;4993000;28;20109;-76
2020/12/12 02:47:35;;;;;;;4.27;2.90;;;;;;;;;;4976182;28;20537;-75
2020/12/12 02:50:09;;;;;;;4.23;2.97;;;;;;;;;;4975846;28;20062;-75
2020/12/12 02:52:36;;;;;;;4.10;2.75;;;;;;;;;;4942935;28;20065;-76
2020/12/12 02:55:01;;;;;;;5.63;2.58;;;;;;;;;;4975075;28;20038;-77
2020/12/12 02:57:27;;;;;;;3.63;2.58;;;;;;;;;;4989646;28;20143;-75
2020/12/12 02:59:52;;;;;;;3.83;2.60;;;;;;;;;;4976470;28;20453;-77
2020/12/12 03:02:17;;;;;;;4.77;2.63;;;;;;;;;;4977661;28;20059;-75
2020/12/12 03:04:43;;;;;;;4.70;2.77;;;;;;;;;;4973515;28;20058;-75
2020/12/12 03:07:08;;;;;;;4.87;2.70;;;;;;;;;;4973410;28;20050;-76
2020/12/12 03:09:33;;;;;;;4.40;3.00;;;;;;;;;;4957066;28;20057;-75
2020/12/12 03:11:59;;;;;;;5.43;2.67;;;;;;;;;;4985291;28;20092;-75
2020/12/12 03:14:24;;;;;;;3.63;2.70;;;;;;;;;;4992354;28;20473;-79
2020/12/12 03:16:49;;;;;;;3.80;2.50;;;;;;;;;;4992332;28;20465;-75
2020/12/12 03:19:15;;;;;;;3.97;2.63;;;;;;;;;;5009065;28;20069;-74
2020/12/12 03:21:40;;;;;;;3.93;2.80;;;;;;;;;;4991982;28;20058;-76
2020/12/12 03:24:05;;;;;;;3.97;2.60;;;;;;;;;;5009172;28;20117;-75
2020/12/12 03:26:31;;;;;;;4.30;2.53;;;;;;;;;;4965975;28;20113;-77
2020/12/12 03:28:56;;;;;;;3.47;2.50;;;;;;;;;;4973303;28;20106;-75
2020/12/12 03:31:21;;;;;;;3.93;2.67;;;;;;;;;;4995645;28;20050;-75
2020/12/12 03:33:47;;;;;;;3.70;2.73;;;;;;;;;;4992666;28;20109;-74
2020/12/12 03:36:12;;;;;;;3.40;2.40;;;;;;;;;;4992876;28;20054;-76
2020/12/12 03:38:37;;;;;;;3.77;2.70;;;;;;;;;;4992499;28;20493;-76
2020/12/12 03:41:03;;;;;;;4.03;2.50;;;;;;;;;;4988240;28;20512;-75
2020/12/12 03:43:28;;;;;;;4.33;2.97;;;;;;;;;;4956879;28;20061;-75
2020/12/12 03:45:53;;;;;;;3.53;2.40;;;;;;;;;;4989243;28;20051;-74
2020/12/12 03:48:19;;;;;;;3.47;2.40;;;;;;;;;;4989118;28;20062;-75
2020/12/12 03:50:44;;;;;;;5.47;2.50;;;;;;;;;;4958710;28;20046;-75
2020/12/12 03:53:09;;;;;;;4.17;3.00;;;;;;;;;;5008714;28;20022;-75
2020/12/12 03:55:35;;;;;;;3.90;2.60;;;;;;;;;;5009600;28;20113;-78
2020/12/12 03:58:00;;;;;;;3.53;2.50;;;;;;;;;;4995782;28;20058;-77
2020/12/12 04:00:25;;;;;;;4.00;2.60;;;;;;;;;;4979750;28;20053;-76
2020/12/12 04:02:50;;;;;;;3.97;2.57;;;;;;;;;;4994468;28;20094;-74
2020/12/12 04:05:16;;;;;;;4.03;2.77;;;;;;;;;;4992898;28;20517;-76
2020/12/12 04:07:41;;;;;;;3.50;2.60;;;;;;;;;;4976709;28;20419;-78
2020/12/12 04:10:06;;;;;;;3.27;2.40;;;;;;;;;;4960366;28;20073;-75
2020/12/12 04:12:32;;;;;;;4.67;3.10;;;;;;;;;;4990992;28;20065;-77
2020/12/12 04:14:57;;;;;;;4.00;2.70;;;;;;;;;;4996089;28;20023;-75
2020/12/12 04:17:22;;;;;;;3.93;2.70;;;;;;;;;;4995164;28;20494;-75
2020/12/12 04:19:48;;;;;;;3.27;2.40;;;;;;;;;;4983647;28;20461;-76
2020/12/12 04:22:13;;;;;;;4.33;2.43;;;;;;;;;;4988404;28;20132;-75
2020/12/12 04:24:38;;;;;;;4.50;2.67;;;;;;;;;;5012101;28;20058;-76
2020/12/12 04:27:04;;;;;;;4.03;2.70;;;;;;;;;;5012178;28;20050;-76
2020/12/12 04:29:29;;;;;;;3.97;2.80;;;;;;;;;;4980986;28;20054;-76
2020/12/12 04:31:54;;;;;;;4.00;2.50;;;;;;;;;;4992326;28;20066;-75
2020/12/12 04:34:20;;;;;;;3.67;2.50;;;;;;;;;;4992217;28;20061;-77
2020/12/12 04:36:45;;;;;;;3.87;2.60;;;;;;;;;;4976013;28;20069;-81
2020/12/12 04:39:12;;;;;;;4.57;2.87;;;;;;;;;;4970597;28;20062;-75
2020/12/12 04:41:37;;;;;;;3.63;2.17;;;;;;;;;;4995464;28;20050;-77
2020/12/12 04:44:03;;;;;;;3.90;2.60;;;;;;;;;;4978915;28;20080;-75
2020/12/12 04:46:28;;;;;;;3.10;2.40;;;;;;;;;;5011726;28;20046;-76
2020/12/12 04:48:53;;;;;;;3.57;2.60;;;;;;;;;;4986908;28;20066;-78
2020/12/12 04:51:19;;;;;;;3.17;2.37;;;;;;;;;;4975743;28;20062;-75
2020/12/12 04:53:44;;;;;;;4.00;2.70;;;;;;;;;;4993102;28;20050;-75
2020/12/12 04:56:09;;;;;;;3.83;2.73;;;;;;;;;;4975600;28;20073;-75
2020/12/12 04:58:37;;;;;;;3.47;2.33;;;;;;;;;;4975698;28;20062;-75
2020/12/12 05:01:02;;;;;;;3.20;2.25;;;;;;;;;;4966196;28;20022;-75
2020/12/12 05:03:27;;;;;;;3.77;2.67;;;;;;;;;;4978319;28;20145;-76
2020/12/12 05:05:53;;;;;;;3.60;2.63;;;;;;;;;;4994970;28;20058;-76
2020/12/12 05:08:18;;;;;;;3.63;2.43;;;;;;;;;;5010350;28;20030;-75
2020/12/12 05:10:46;;;;;;;4.03;2.50;;;;;;;;;;4978640;28;20105;-75
2020/12/12 05:13:22;;;;;;;3.75;2.55;;;;;;;;;;4978877;28;20022;-75
2020/12/12 05:15:48;;;;;;;3.80;2.67;;;;;;;;;;4985580;28;20082;-75
2020/12/12 05:18:13;;;;;;;;;;;;;;;;;;4943917;28;20026;-75
2020/12/12 05:20:39;;;;;;;4.23;2.40;;;;;;;;;;4983740;28;20000;-75
2020/12/12 05:23:13;;;;;;;3.37;2.40;;;;;;;;;;4994992;28;20121;-75
2020/12/12 05:25:39;;;;;;;3.67;2.55;;;;;;;;;;4995970;28;20022;-75
2020/12/12 05:28:06;;;;;;;3.75;2.60;;;;;;;;;;4995205;28;20549;-75
2020/12/12 05:30:33;;;;;;;3.10;2.30;;;;;;;;;;4962245;28;20030;-75
2020/12/12 05:32:58;;;;;;;3.38;2.47;;;;;;;;;;4964548;28;20058;-77
2020/12/12 05:35:23;;;;;;;3.30;2.30;;;;;;;;;;4958989;28;20070;-75
2020/12/12 05:37:49;;;;;;;3.13;2.30;;;;;;;;;;4942830;28;20037;-75
2020/12/12 05:40:14;;;;;;;3.30;2.40;;;;;;;;;;4975029;28;20106;-75
2020/12/12 05:42:39;;;;;;;3.53;2.43;;;;;;;;;;4974777;28;20110;-76
2020/12/12 05:45:05;;;;;;;3.90;2.37;;;;;;;;;;5018078;23;20060;-81
2020/12/12 05:47:32;;;;;;;3.60;2.47;;;;;;;;;;5028160;28;20120;-82
2020/12/12 05:49:57;;;;;;;;;;;;;;;;;;5028482;28;20029;-82
2020/12/12 05:52:22;;;;;;;3.13;2.30;;;;;;;;;;5028094;28;20287;-82
2020/12/12 05:54:48;;;;;;;3.87;2.73;;;;;;;;;;5049973;28;20631;-81
2020/12/12 05:57:13;;;;;;;3.27;2.50;;;;;;;;;;5048063;28;20031;-80
2020/12/12 05:59:38;;;;;;;3.37;2.47;;;;;;;;;;5029933;28;20032;-82
2020/12/12 06:02:05;;;;;;;3.43;2.37;;;;;;;;;;5008087;28;20416;-86
2020/12/12 06:04:30;;;;;;;;;;;;;;;;;;5000991;28;20022;-82
2020/12/12 06:06:56;;;;;;;3.63;2.58;;;;;;;;;;5029868;28;19920;-83
2020/12/12 06:09:22;;;;;;;3.80;2.50;;;;;;;;;;5017528;28;20476;-82
2020/12/12 06:11:47;;;;;;;3.23;2.33;;;;;;;;;;5017085;28;20025;-82
2020/12/12 06:14:13;;;;;;;3.30;2.30;;;;;;;;;;5022814;28;20167;-82
2020/12/12 06:16:38;;;;;;;3.30;2.43;;;;;;;;;;5020192;28;20025;-81
2020/12/12 06:19:06;;;;;;;3.50;2.30;;;;;;;;;;5036920;28;20025;-82
2020/12/12 06:21:32;;;;;;;3.45;2.47;;;;;;;;;;5053238;28;20027;-83
2020/12/12 06:23:58;;;;;;;3.40;2.30;;;;;;;;;;5036759;28;20017;-83
2020/12/12 06:26:45;;;;;;;2.97;2.38;;;;;;;;;;5020098;28;20060;-82
2020/12/12 06:29:14;;;;;;;5.05;2.53;;;;;;;;;;5039123;28;20034;-83
2020/12/12 06:31:39;;;;;;;3.03;2.30;;;;;;;;;;4997615;28;20087;-82
2020/12/12 06:34:05;;;;;;;4.60;2.80;;;;;;;;;;5023381;28;20465;-80
2020/12/12 06:36:31;;;;;;;3.87;2.40;;;;;;;;;;5000381;28;20080;-79
2020/12/12 06:39:29;;;;;;;;;;;;;;;;;;5003114;28;20027;-80
2020/12/12 06:41:55;;;;;;;3.72;2.55;;;;;;;;;;4991708;28;20371;-79
2020/12/12 06:44:36;;;;;;;;;;;;;;;;;;5013780;28;20026;-79
2020/12/12 06:47:03;;;;;;;4.38;2.63;;;;;;;;;;4997322;28;19913;-79
2020/12/12 06:49:28;;;;;;;;;;;;;;;;;;4997247;28;20075;-80
2020/12/12 06:51:54;;;;;;;3.53;2.40;;;;;;;;;;5013192;28;19913;-80
2020/12/12 06:54:19;;;;;;;3.73;2.57;;;;;;;;;;5027358;28;20289;-80
2020/12/12 06:56:45;;;;;;;3.70;2.50;;;;;;;;;;5019553;28;20057;-81
2020/12/12 06:59:26;;;;;;;3.80;2.70;;;;;;;;;;5019244;28;20455;-81
2020/12/12 07:01:55;;;;;;;3.83;2.70;;;;;;;;;;5036198;28;20039;-87
2020/12/12 07:04:29;;;;;;;4.25;2.75;;;;;;;;;;5019557;28;20051;-87
2020/12/12 07:06:58;;;;;;;3.88;2.55;;;;;;;;;;5032274;28;20048;-81
2020/12/12 07:09:25;;;;;;;4.03;2.92;;;;;;;;;;5029152;28;20495;-79
2020/12/12 07:11:51;;;;;;;4.82;3.05;;;;;;;;;;5036088;28;20439;-79
2020/12/12 07:14:16;;;;;;;4.43;2.60;;;;;;;;;;5019153;28;20052;-80
2020/12/12 07:16:42;;;;;;;4.73;2.80;;;;;;;;;;5018873;28;20033;-79
2020/12/12 07:19:07;;;;;;;4.03;2.80;;;;;;;;;;5035631;28;20025;-81
2020/12/12 07:21:37;;;;;;;3.70;2.70;;;;;;;;;;5035880;28;20048;-81
2020/12/12 07:24:03;;;;;;;5.53;2.95;;;;;;;;;;5035621;28;20079;-83
2020/12/12 07:26:28;;;;;;;4.63;2.60;;;;;;;;;;5021196;28;20024;-82
2020/12/12 07:28:53;;;;;;;3.97;2.87;;;;;;;;;;5020698;28;20032;-80
2020/12/12 07:31:19;;;;;;;8.83;2.80;;;;;;;;;;5019837;28;20075;-82
2020/12/12 07:33:47;;;;;;;5.50;3.07;;;;;;;;;;5020631;28;20056;-81
2020/12/12 07:36:12;;;;;;;4.88;3.00;;;;;;;;;;5019741;28;20403;-86
2020/12/12 07:38:39;;;;;;;3.70;2.60;;;;;;;;;;4981082;28;20128;-82
2020/12/12 07:41:10;;;;;;;6.18;2.83;;;;;;;;;;4981008;28;20109;-83
2020/12/12 07:43:36;;;;;;;3.80;2.90;;;;;;;;;;4981569;28;20033;-82
2020/12/12 07:46:08;;;;;;;4.20;2.87;;;;;;;;;;4997378;28;20532;-81
2020/12/12 07:48:33;;;;;;;5.22;2.80;;;;;;;;;;4998006;28;20064;-82
2020/12/12 07:50:58;;;;;;;4.53;3.10;;;;;;;;;;5015178;28;20059;-83
2020/12/12 07:53:24;;;;;;;7.00;2.90;;;;;;;;;;5016602;28;20049;-81
2020/12/12 07:55:57;;;;;;;5.20;2.80;;;;;;;;;;5000249;28;20049;-81
2020/12/12 07:58:25;;;;;;;9.52;3.00;;;;;;;;;;5013518;28;20030;-82
2020/12/12 08:01:00;;;;;;;6.53;2.92;;;;;;;;;;5028247;28;20033;-82
2020/12/12 08:03:26;;;;;;;3.95;2.78;;;;;;;;;;5036344;28;20052;-81
2020/12/12 08:06:07;;;;;;;6.53;3.10;;;;;;;;;;5020110;28;20479;-82
2020/12/12 08:08:33;;;;;;;5.65;2.85;;;;;;;;;;5023352;28;20030;-85
2020/12/12 08:10:59;;;;;;;4.60;2.97;;;;;;;;;;5013144;28;20029;-81
2020/12/12 08:13:25;;;;;;;4.80;2.95;;;;;;;;;;5018605;28;20038;-81
2020/12/12 08:16:01;;;;;;;3.85;2.72;;;;;;;;;;5007921;28;20076;-80
2020/12/12 08:18:26;;;;;;;4.30;2.80;;;;;;;;;;4998568;28;20060;-78
2020/12/12 08:20:52;;;;;;;4.47;3.03;;;;;;;;;;5000444;28;20089;-80
2020/12/12 08:23:18;;;;;;;4.20;2.97;;;;;;;;;;5017601;28;20048;-81
2020/12/12 08:25:43;;;;;;;4.72;2.95;;;;;;;;;;5003675;28;20547;-81
2020/12/12 08:28:08;;;;;;;5.00;2.93;;;;;;;;;;5019604;28;20125;-80
2020/12/12 08:30:34;;;;;;;6.77;3.23;;;;;;;;;;5019732;28;20052;-80
2020/12/12 08:33:11;;;;;;;4.17;2.83;;;;;;;;;;5032779;28;20449;-81
2020/12/12 08:35:37;;;;;;;4.30;3.05;;;;;;;;;;5000121;28;20022;-81
2020/12/12 08:38:07;;;;;;;4.13;3.03;;;;;;;;;;5002779;28;20484;-81
2020/12/12 08:40:34;;;;;;;4.50;2.90;;;;;;;;;;5019635;28;20032;-81
2020/12/12 08:43:09;;;;;;;4.18;3.08;;;;;;;;;;5038184;28;20052;-80
2020/12/12 08:45:42;;;;;;;4.78;3.20;;;;;;;;;;5039354;28;20068;-80
2020/12/12 08:48:11;;;;;;;3.95;2.78;;;;;;;;;;5023459;28;20095;-81
2020/12/12 08:50:43;;;;;;;4.10;2.90;;;;;;;;;;5039643;28;20070;-81
2020/12/12 08:53:34;;;;;;;4.38;3.00;;;;;;;;;;5050070;28;20541;-80
2020/12/12 08:56:00;;;;;;;4.78;3.17;;;;;;;;;;5036556;28;20025;-82
2020/12/12 08:58:33;;;;;;;5.90;3.20;;;;;;;;;;5036509;28;20056;-81
2020/12/12 09:01:11;;;;;;;3.97;2.78;;;;;;;;;;5006614;28;20029;-80
2020/12/12 09:03:49;;;;;;;4.07;2.92;;;;;;;;;;5055822;28;20020;-80
2020/12/12 09:06:15;;;;;;;3.80;2.80;;;;;;;;;;5039746;28;20053;-80
2020/12/12 09:08:40;;;;;;;4.33;3.00;;;;;;;;;;5022410;28;20048;-81
2020/12/12 09:11:13;;;;;;;4.63;2.83;;;;;;;;;;5038362;28;20103;-82
2020/12/12 09:13:38;;;;;;;3.80;2.70;;;;;;;;;;5022685;28;20025;-79
2020/12/12 09:16:06;;;;;;;4.20;2.77;;;;;;;;;;5049078;28;20488;-81
2020/12/12 09:18:44;;;;;;;4.20;2.80;;;;;;;;;;5037933;28;20029;-80
2020/12/12 09:21:10;;;;;;;6.32;3.00;;;;;;;;;;5009258;28;20018;-80
2020/12/12 09:23:36;;;;;;;4.18;2.97;;;;;;;;;;4982499;28;20396;-79
2020/12/12 09:26:01;;;;;;;5.33;2.93;;;;;;;;;;4985514;28;20029;-81
2020/12/12 09:28:26;;;;;;;4.27;3.00;;;;;;;;;;4982229;28;20030;-80
2020/12/12 09:30:52;;;;;;;4.83;3.10;;;;;;;;;;5003819;28;20490;-80
2020/12/12 09:33:17;;;;;;;4.37;2.93;;;;;;;;;;5034741;28;20452;-81
2020/12/12 09:35:42;;;;;;;4.43;3.00;;;;;;;;;;5038001;28;20090;-79
2020/12/12 09:38:08;;;;;;;4.70;2.93;;;;;;;;;;5018826;28;20064;-81
2020/12/12 09:40:33;;;;;;;9.87;3.23;;;;;;;;;;4998019;28;20033;-80
2020/12/12 09:42:58;;;;;;;5.37;2.93;;;;;;;;;;5015945;28;20069;-82
2020/12/12 09:45:24;;;;;;;5.17;3.30;;;;;;;;;;4998223;28;20030;-80
2020/12/12 09:47:49;;;;;;;4.80;3.00;;;;;;;;;;5014284;28;20073;-80
2020/12/12 09:50:14;;;;;;;7.33;3.37;;;;;;;;;;4997946;28;20072;-82
2020/12/12 09:52:39;;;;;;;7.40;3.33;;;;;;;;;;5013077;28;20132;-82
2020/12/12 09:55:05;;;;;;;4.83;3.27;;;;;;;;;;5016761;28;20063;-80
2020/12/12 09:57:30;;;;;;;4.90;3.00;;;;;;;;;;5042889;28;20053;-81
2020/12/12 09:59:55;;;;;;;6.30;3.27;;;;;;;;;;5007856;28;20073;-82
2020/12/12 10:02:21;;;;;;;4.80;3.07;;;;;;;;;;4997626;28;20069;-81
2020/12/12 10:04:46;;;;;;;4.37;3.00;;;;;;;;;;5006426;28;20124;-80
2020/12/12 10:07:11;;;;;;;4.90;3.17;;;;;;;;;;5033559;28;20057;-82
2020/12/12 10:09:37;;;;;;;8.32;3.20;;;;;;;;;;4997655;28;20074;-80
2020/12/12 10:12:03;;;;;;;4.77;3.10;;;;;;;;;;5017631;28;20056;-80
2020/12/12 10:14:28;;;;;;;8.23;3.53;;;;;;;;;;5036877;28;20048;-80
2020/12/12 10:16:56;;;;;;;5.10;3.40;;;;;;;;;;5034775;28;20471;-79
2020/12/12 10:19:23;;;;;;;4.68;3.28;;;;;;;;;;5020339;28;20025;-78
2020/12/12 10:21:48;;;;;;;6.18;3.45;;;;;;;;;;5019732;28;20036;-80
2020/12/12 10:24:13;;;;;;;13.10;4.73;;;;;;;;;;5017836;28;20057;-79
2020/12/12 10:26:39;;;;;;;13.70;4.73;;;;;;;;;;5001085;28;20025;-80
2020/12/12 10:29:04;;;;;;;11.43;4.43;;;;;;;;;;5000512;28;20112;-80
2020/12/12 10:31:29;;;;;;;11.03;4.57;;;;;;;;;;4997869;28;20493;-80
2020/12/12 10:33:55;;;;;;;9.30;4.70;;;;;;;;;;5002578;28;20470;-82
2020/12/12 10:36:20;;;;;;;7.90;4.30;;;;;;;;;;5019913;28;20025;-82
2020/12/12 10:38:45;;;;;;;8.43;4.67;;;;;;;;;;5019162;28;20518;-81
2020/12/12 10:41:12;;;;;;;7.77;4.57;;;;;;;;;;5019833;28;20440;-80
2020/12/12 10:43:38;;;;;;;9.57;4.85;;;;;;;;;;5014678;28;20028;-81
2020/12/12 10:46:03;;;;;;;9.75;4.28;;;;;;;;;;5019530;28;20492;-80
2020/12/12 10:48:28;;;;;;;10.33;4.53;;;;;;;;;;5019615;28;20028;-80
2020/12/12 10:50:54;;;;;;;8.83;4.37;;;;;;;;;;5019063;28;20112;-81
2020/12/12 10:53:19;;;;;;;12.20;4.50;;;;;;;;;;5005795;28;20049;-86
2020/12/12 10:55:44;;;;;;;11.73;4.70;;;;;;;;;;5009937;28;20057;-81
2020/12/12 10:58:10;;;;;;;13.63;4.90;;;;;;;;;;5012227;28;20486;-81
2020/12/12 11:00:42;;;;;;;16.40;4.53;;;;;;;;;;5000635;28;20029;-82
2020/12/12 11:03:07;;;;;;;13.82;4.85;;;;;;;;;;5016854;28;20031;-83
2020/12/12 11:05:33;;;;;;;13.07;4.47;;;;;;;;;;4998971;28;20021;-82
2020/12/12 11:07:59;;;;;;;12.15;4.78;;;;;;;;;;5007306;28;20066;-82
2020/12/12 11:10:24;;;;;;;15.40;4.93;;;;;;;;;;5035558;28;20067;-80
2020/12/12 11:12:50;;;;;;;13.50;3.70;;;;;;;;;;5024516;28;20057;-80
2020/12/12 11:15:15;;;;;;;10.40;4.07;;;;;;;;;;4996308;28;20061;-79
2020/12/12 11:17:41;;;;;;;8.93;4.20;;;;;;;;;;5021398;28;20401;-79
2020/12/12 11:20:06;;;;;;;8.90;4.00;;;;;;;;;;5010919;28;20064;-82
2020/12/12 11:22:31;;;;;;;13.80;4.00;;;;;;;;;;4996174;28;20057;-83
2020/12/12 11:24:57;;;;;;;8.27;3.87;;;;;;;;;;5020884;28;20018;-82
2020/12/12 11:27:22;;;;;;;10.53;3.67;;;;;;;;;;5014930;28;20052;-82
2020/12/12 11:29:47;;;;;;;12.47;3.90;;;;;;;;;;5017202;28;20060;-80
2020/12/12 11:32:13;;;;;;;11.57;3.80;;;;;;;;;;5006053;28;20117;-80
2020/12/12 11:34:45;;;;;;;8.77;3.93;;;;;;;;;;4998291;28;20489;-80
2020/12/12 11:37:26;;;;;;;14.07;4.93;;;;;;;;;;5002034;28;20025;-82
2020/12/12 11:42:59;;;;;;;15.85;6.57;;;;;;;;;;5037980;28;20043;-82
2020/12/12 11:45:45;;;;;;;14.88;7.25;;;;;;;;;;5060686;23;20045;-79
2020/12/12 11:48:10;;;;;;;20.95;7.45;;;;;;;;;;5032754;28;20040;-84
2020/12/12 11:50:36;;;;;;;19.93;7.10;;;;;;;;;;5015990;28;20473;-81
2020/12/12 11:53:01;;;;;;;16.20;6.47;;;;;;;;;;5032275;28;20468;-82
2020/12/12 11:55:26;;;;;;;12.20;6.50;;;;;;;;;;5039075;28;20055;-80
2020/12/12 11:57:52;;;;;;;14.27;6.20;;;;;;;;;;5035131;28;20479;-81
2020/12/12 12:00:17;;;;;;;12.37;6.07;;;;;;;;;;5025759;28;20056;-80
2020/12/12 12:02:43;;;;;;;13.83;5.90;;;;;;;;;;5016796;28;20401;-82
2020/12/12 12:05:08;;;;;;;13.93;6.47;;;;;;;;;;5022361;28;20049;-81
2020/12/12 12:07:40;;;;;;;13.63;5.50;;;;;;;;;;5014861;28;20049;-81
2020/12/12 12:10:15;;;;;;;11.30;5.20;;;;;;;;;;5000832;28;20167;-80
2020/12/12 12:12:41;;;;;;;12.02;5.40;;;;;;;;;;5041509;28;20499;-79
2020/12/12 12:15:06;;;;;;;11.87;5.17;;;;;;;;;;5034896;28;20044;-80
2020/12/12 12:17:31;;;;;;;10.50;5.53;;;;;;;;;;5036929;28;20059;-80
2020/12/12 12:19:57;;;;;;;15.13;5.73;;;;;;;;;;5038653;28;20055;-81
2020/12/12 12:22:22;;;;;;;13.97;5.33;;;;;;;;;;4999115;28;20072;-79
2020/12/12 12:24:47;;;;;;;13.17;5.60;;;;;;;;;;5015695;28;20060;-79
2020/12/12 12:27:13;;;;;;;10.00;5.17;;;;;;;;;;5014925;28;20021;-78
2020/12/12 12:29:38;;;;;;;9.57;4.90;;;;;;;;;;5033633;28;20049;-79
2020/12/12 12:32:03;;;;;;;12.40;5.30;;;;;;;;;;5038396;28;20110;-80
2020/12/12 12:34:29;;;;;;;10.60;5.10;;;;;;;;;;5028918;28;20108;-78
2020/12/12 12:36:58;;;;;;;9.10;4.93;;;;;;;;;;5038638;28;20446;-77
2020/12/12 12:39:23;;;;;;;10.90;5.00;;;;;;;;;;5033459;28;20028;-81
2020/12/12 12:41:50;;;;;;;9.10;4.67;;;;;;;;;;5021903;28;20533;-78
2020/12/12 12:44:15;;;;;;;8.02;4.50;;;;;;;;;;5026453;28;20025;-79
2020/12/12 12:46:43;;;;;;;8.97;4.40;;;;;;;;;;5008200;28;20025;-80
2020/12/12 12:49:09;;;;;;;9.07;4.45;;;;;;;;;;5038608;28;20032;-83
2020/12/12 12:51:34;;;;;;;12.23;4.93;;;;;;;;;;5021853;28;20032;-82
2020/12/12 12:53:59;;;;;;;13.10;4.97;;;;;;;;;;5009960;28;20117;-82
2020/12/12 12:56:25;;;;;;;11.73;5.43;;;;;;;;;;4999251;28;20093;-81
2020/12/12 12:58:51;;;;;;;9.67;4.57;;;;;;;;;;4998881;28;20037;-82
2020/12/12 13:01:21;;;;;;;12.07;5.68;;;;;;;;;;5025864;28;20083;-83
2020/12/12 13:03:47;;;;;;;12.75;6.47;;;;;;;;;;5038268;28;20430;-80
2020/12/12 13:06:22;;;;;;;10.05;4.68;;;;;;;;;;5019645;28;20052;-82
2020/12/12 13:08:47;;;;;;;18.65;5.60;;;;;;;;;;5018363;28;20040;-81
2020/12/12 13:11:13;;;;;;;10.37;4.77;;;;;;;;;;5031043;28;20029;-78
2020/12/12 13:13:39;;;;;;;15.77;5.53;;;;;;;;;;5001713;28;20025;-79
2020/12/12 13:16:04;;;;;;;12.50;5.13;;;;;;;;;;4998670;28;20463;-79
2020/12/12 13:19:10;;;;;;;7.63;4.77;;;;;;;;;;5035817;28;20121;-80
2020/12/12 13:21:44;;;;;;;10.65;4.90;;;;;;;;;;5009955;28;20100;-79
2020/12/12 13:24:10;;;;;;;9.43;4.30;;;;;;;;;;5025183;28;20116;-80
2020/12/12 13:26:35;;;;;;;11.13;4.87;;;;;;;;;;5019839;28;20479;-78
2020/12/12 13:31:46;;;;;;;8.85;4.32;;;;;;;;;;5029057;28;20175;-79
2020/12/12 13:34:11;;;;;;;10.38;4.15;;;;;;;;;;5026283;28;20056;-78
2020/12/12 13:36:36;;;;;;;7.47;3.97;;;;;;;;;;5038270;28;20053;-78
2020/12/12 13:39:02;;;;;;;11.17;4.47;;;;;;;;;;5018228;28;20049;-78
2020/12/12 13:41:27;;;;;;;9.43;4.40;;;;;;;;;;5033001;28;20036;-79
2020/12/12 13:43:53;;;;;;;8.10;4.43;;;;;;;;;;4984255;28;20395;-78
2020/12/12 13:46:18;;;;;;;6.97;3.80;;;;;;;;;;5035740;28;20495;-78
2020/12/12 13:48:44;;;;;;;10.70;4.30;;;;;;;;;;5018339;28;20026;-76
2020/12/12 13:51:09;;;;;;;9.63;4.43;;;;;;;;;;5002482;28;20556;-77
2020/12/12 13:53:34;;;;;;;9.60;4.03;;;;;;;;;;5035626;28;20409;-77
2020/12/12 13:56:00;;;;;;;7.43;4.10;;;;;;;;;;5035062;28;20456;-78
2020/12/12 13:58:25;;;;;;;9.30;4.47;;;;;;;;;;5034476;28;20064;-79
2020/12/12 14:00:51;;;;;;;7.43;3.87;;;;;;;;;;5017215;28;20121;-78
2020/12/12 14:03:16;;;;;;;11.60;4.00;;;;;;;;;;5018251;28;20033;-78
2020/12/12 14:05:51;;;;;;;10.63;4.13;;;;;;;;;;5044495;28;20060;-79
2020/12/12 14:08:34;;;;;;;10.05;4.05;;;;;;;;;;5018512;28;20021;-80
2020/12/12 14:22:15;;;;;;;8.82;4.03;;;;;;;;;;5039708;28;20066;-80
2020/12/12 14:24:40;;;;;;;7.65;3.60;;;;;;;;;;5038833;28;20033;-80
2020/12/12 14:29:49;;;;;;;6.22;3.65;;;;;;;;;;5036678;28;20111;-80
2020/12/12 14:32:15;;;;;;;10.03;3.57;;;;;;;;;;5016290;28;20104;-82
2020/12/12 14:34:40;;;;;;;7.30;3.80;;;;;;;;;;5016773;28;20057;-81
2020/12/12 14:37:05;;;;;;;5.57;3.60;;;;;;;;;;5000228;28;20519;-84
2020/12/12 14:39:31;;;;;;;8.97;3.60;;;;;;;;;;5015795;28;20458;-85
2020/12/12 14:41:56;;;;;;;7.97;3.40;;;;;;;;;;4997644;28;20129;-81
2020/12/12 14:44:22;;;;;;;8.10;3.73;;;;;;;;;;5004036;28;20098;-82
2020/12/12 14:46:50;;;;;;;5.50;3.53;;;;;;;;;;5002404;28;20028;-80
2020/12/12 14:49:16;;;;;;;6.03;3.63;;;;;;;;;;4993275;28;20029;-80
2020/12/12 14:51:42;;;;;;;8.57;3.97;;;;;;;;;;5019424;28;20032;-81
2020/12/12 14:54:07;;;;;;;10.40;3.77;;;;;;;;;;5018302;28;20032;-80
2020/12/12 14:56:32;;;;;;;9.63;3.77;;;;;;;;;;5019752;28;20034;-82
2020/12/12 14:58:58;;;;;;;6.87;3.30;;;;;;;;;;5016072;28;20025;-81
2020/12/12 15:01:23;;;;;;;6.20;3.53;;;;;;;;;;5012966;28;20109;-79